< < Back
Terminal Aerodrome Forecast


Current Version              Previous Versions:   1  2  3  4  5  6  7  8  9  

Terminal Aerodrome Forecast

148
FTUS44 KBMX 021729
TAFANB
TAF
KANB 021729Z 0218/0318 23007KT P6SM SHRA VCTS BKN040CB
      TEMPO 0218/0222 4SM TSRA BKN025CB OVC040
     FM030000 24006KT P6SM SHRA VCTS BKN040CB OVC100
     FM030300 26004KT P6SM VCSH BKN050 OVC100
     FM030600 28003KT 5SM BR SCT007 BKN010=

Latest METAR

374
SAUS70 KWBC 022300 RRL
MTRANB
METAR KANB 022253Z AUTO 25007KT 10SM SCT095 BKN120 25/19 A2993 RMK AO2
LTG DSNT W-N SLP127 T02500194


USA.gov is the U.S. government's official web portal to all federal, state and local government web resources and services.